ADDS METAR Data INFO
IDs: Format: Raw Decoded Include TAF

Data at: 0511 UTC 21 Feb 2018

KMIV 201510Z AUTO 24008KT 10SM SCT010 18/14 A3038 RMK AO2 T01780139
KMIV 201454Z AUTO 23007G15KT 10SM BKN010 17/13 A3038 RMK AO2 SLP286 T01670133 50006
KMIV 201406Z AUTO 24008G17KT 10SM BKN010 15/13 A3039 RMK AO2 T01500128
KMIV 201354Z AUTO 25008KT 10SM BKN008 15/13 A3038 RMK AO2 CIG 006V011 SLP287 T01500128
KMIV 201304Z AUTO 23006KT 9SM OVC005 13/13 A3038 RMK AO2 T01330128
KMIV 201254Z AUTO 23006KT 8SM OVC004 13/13 A3038 RMK AO2 SLP286 T01330128
KMIV 201154Z AUTO 23006KT 7SM OVC004 13/13 A3036 RMK AO2 SLP280 T01330128 10133 20106 53013
KMIV 201054Z AUTO 21008KT 180V240 3SM BR OVC002 13/13 A3035 RMK AO2 SLP275 T01330128
KMIV 201048Z AUTO 22008KT 170V250 2 1/2SM BR OVC002 13/13 A3035 RMK AO2
KMIV 200954Z AUTO VRB05KT 1SM BR OVC001 12/12 A3033 RMK AO2 SLP270 T01220122
KMIV 200917Z AUTO VRB04KT 1 1/4SM BR OVC001 12/11 A3033 RMK AO2 T01170111
KMIV 200854Z AUTO VRB03KT 1 1/4SM BR OVC002 12/11 A3032 RMK AO2 SLP267 T01170111 58005
KMIV 200838Z AUTO VRB03KT 1 1/2SM BR OVC003 12/11 A3033 RMK AO2 T01170111
KMIV 200828Z AUTO VRB04KT 2SM BR OVC003 12/11 A3033 RMK AO2 T01170111
KMIV 200815Z AUTO 00000KT 3SM BR OVC003 11/11 A3033 RMK AO2 T01110111
KMIV 200754Z AUTO VRB03KT 5SM BR OVC005 11/11 A3033 RMK AO2 CIG 004V008 SLP270 T01110106
KMIV 200732Z AUTO VRB03KT 6SM BR BKN008 OVC013 11/11 A3034 RMK AO2 CIG 003V010 T01110106
KMIV 200722Z AUTO 21004KT 6SM BR FEW006 BKN010 OVC015 12/11 A3034 RMK AO2 CIG 007V014 T01170111
KMIV 200713Z AUTO 22004KT 6SM BR SCT006 OVC015 12/11 A3034 RMK AO2 T01170106
KMIV 200654Z AUTO VRB03KT 6SM BR FEW003 BKN009 OVC015 11/11 A3034 RMK AO2 CIG 007V012 SLP273 T01110106
KMIV 200642Z AUTO VRB03KT 6SM BR FEW003 BKN009 OVC085 11/11 A3034 RMK AO2 T01110106
KMIV 200635Z AUTO 00000KT 6SM BR SCT003 BKN016 OVC090 11/11 A3034 RMK AO2 T01110106
KMIV 200554Z AUTO 00000KT 3SM BR OVC002 11/10 A3034 RMK AO2 SLP272 T01060100 10111 20100 58005
KMIV 200454Z AUTO 19003KT 3SM BR OVC002 10/09 A3035 RMK AO2 SLP276 T01000094 401171028
KMIV 200354Z AUTO 00000KT 4SM BR OVC002 10/10 A3036 RMK AO2 SLP278 T01000100
KMIV 200254Z AUTO VRB03KT 4SM BR OVC003 11/10 A3035 RMK AO2 SLP277 T01060100 56003
KMIV 200216Z AUTO 00000KT 9SM OVC004 11/10 A3036 RMK AO2 T01060100
KMIV 200154Z AUTO VRB04KT 10SM OVC005 11/09 A3035 RMK AO2 SLP277 T01060094
KMIV 200054Z AUTO VRB04KT 10SM OVC007 11/10 A3035 RMK AO2 SLP277 T01110100
KMIV 200017Z AUTO 16004KT 10SM OVC008 11/09 A3036 RMK AO2 CIG 006V010 T01110094
KMIV 192354Z AUTO 17004KT 10SM OVC011 11/09 A3036 RMK AO2 SLP281 T01060089 10117 20089 58001
KMIV 192304Z AUTO VRB03KT 10SM BKN013 OVC019 11/08 A3036 RMK AO2 T01060083
KMIV 192254Z AUTO 16004KT 10SM OVC016 10/08 A3035 RMK AO2 SLP277 T01000083
KMIV 192154Z AUTO VRB03KT 10SM OVC020 11/08 A3038 RMK AO2 SLP287 T01060083
KMIV 192101Z AUTO VRB04KT 10SM OVC029 11/08 A3036 RMK AO2 T01110083
KMIV 192054Z AUTO 18005KT 10SM OVC031 11/08 A3037 RMK AO2 SLP282 T01110078 56024
KMIV 191954Z AUTO VRB05KT 10SM OVC035 11/07 A3038 RMK AO2 SLP287 T01060072
KMIV 191911Z AUTO 17006KT 10SM SCT019 OVC033 09/07 A3039 RMK AO2 T00940067
KMIV 191854Z AUTO 17006KT 10SM BKN018 OVC033 09/07 A3040 RMK AO2 SLP295 T00940067
KMIV 191754Z AUTO VRB04KT 10SM BKN022 OVC031 09/06 A3044 RMK AO2 RAB18E46 SLP306 P0000 60000 T00890061 10106 21011 58021
KMIV 191746Z AUTO 17004KT 10SM BKN022 OVC031 09/07 A3044 RMK AO2 RAB18E46 P0000 T00890067